Time;durP1;ratioP1;P1;durP2;ratioP2;P2;SDS_P1;SDS_P2;PMS_P1;PMS_P2;Temp;Humidity;BMP_temperature;BMP_pressure;BME280_temperature;BME280_humidity;BME280_pressure;Samples;Min_cycle;Max_cycle;Signal;HPM_P1;HPM_P2
2024/02/13 06:32:39;;;;;;;6.45;2.60;;;;;;;;;;4964537;27;2202312;-66
2024/02/13 06:35:09;;;;;;;9.52;3.33;;;;;;;;;;5030639;28;20040;-66
2024/02/13 06:37:39;;;;;;;14.93;4.25;;;;;;;;;;5037872;28;20053;-64
2024/02/13 06:40:08;;;;;;;9.98;4.32;;;;;;;;;;5034489;28;20055;-63
2024/02/13 06:42:35;;;;;;;11.05;5.03;;;;;;;;;;5022089;28;20059;-63
2024/02/13 06:45:03;;;;;;;19.13;4.68;;;;;;;;;;5020373;28;20049;-63
2024/02/13 06:47:30;;;;;;;9.38;4.60;;;;;;;;;;5027001;28;20056;-66
2024/02/13 06:50:00;;;;;;;11.07;4.53;;;;;;;;;;5025557;28;20059;-63
2024/02/13 06:52:27;;;;;;;8.65;4.18;;;;;;;;;;5027209;28;20080;-65
2024/02/13 06:54:54;;;;;;;11.18;4.53;;;;;;;;;;5057517;28;20057;-66
2024/02/13 06:57:20;;;;;;;12.50;4.63;;;;;;;;;;5035515;28;20072;-64
2024/02/13 06:59:50;;;;;;;6.68;3.10;;;;;;;;;;5033536;28;20048;-68
2024/02/13 07:02:17;;;;;;;8.27;3.90;;;;;;;;;;5019933;28;20096;-64
2024/02/13 07:04:44;;;;;;;12.35;4.45;;;;;;;;;;5016371;28;20060;-66
2024/02/13 07:07:12;;;;;;;13.77;4.78;;;;;;;;;;5031508;28;20076;-63
2024/02/13 07:09:45;;;;;;;7.68;3.08;;;;;;;;;;5019015;28;20068;-64
2024/02/13 07:12:12;;;;;;;13.27;4.82;;;;;;;;;;5024332;28;20414;-63
2024/02/13 07:14:39;;;;;;;10.18;3.97;;;;;;;;;;5035678;28;20315;-65
2024/02/13 07:17:07;;;;;;;11.85;4.00;;;;;;;;;;5035556;28;20056;-63
2024/02/13 07:19:34;;;;;;;10.40;3.67;;;;;;;;;;5044547;28;20057;-63
2024/02/13 07:22:01;;;;;;;6.70;2.83;;;;;;;;;;5036152;28;20136;-65
2024/02/13 07:24:30;;;;;;;9.48;3.30;;;;;;;;;;5046246;28;20293;-63
2024/02/13 07:26:59;;;;;;;9.63;3.42;;;;;;;;;;5045629;28;20063;-66
2024/02/13 07:29:26;;;;;;;12.10;3.78;;;;;;;;;;5046998;28;20048;-66
2024/02/13 07:31:54;;;;;;;5.93;2.75;;;;;;;;;;5034793;28;20057;-64
2024/02/13 07:34:21;;;;;;;9.82;3.80;;;;;;;;;;5031852;28;20052;-64
2024/02/13 07:36:48;;;;;;;9.80;3.28;;;;;;;;;;5033926;28;20075;-64
2024/02/13 07:39:15;;;;;;;8.15;3.38;;;;;;;;;;5027750;28;20076;-63
2024/02/13 07:41:44;;;;;;;15.40;5.47;;;;;;;;;;5029614;28;20060;-64
2024/02/13 07:44:11;;;;;;;12.98;3.58;;;;;;;;;;5034190;28;20065;-65
2024/02/13 07:46:40;;;;;;;11.40;3.13;;;;;;;;;;5029162;28;20050;-64
2024/02/13 07:49:09;;;;;;;8.38;3.35;;;;;;;;;;5015276;28;20164;-63
2024/02/13 07:51:37;;;;;;;8.63;3.20;;;;;;;;;;5017862;28;20112;-65
2024/02/13 07:54:06;;;;;;;4.90;2.60;;;;;;;;;;5034248;28;20056;-63
2024/02/13 07:56:37;;;;;;;;;;;;;;;;;;5027893;28;20061;-63
2024/02/13 07:59:05;;;;;;;8.52;2.67;;;;;;;;;;5030817;28;19953;-63
2024/02/13 08:01:33;;;;;;;11.23;3.33;;;;;;;;;;5012138;28;20110;-65
2024/02/13 08:04:00;;;;;;;9.90;3.33;;;;;;;;;;5016004;28;20495;-66
2024/02/13 08:06:27;;;;;;;7.65;2.83;;;;;;;;;;5018005;28;20061;-63
2024/02/13 08:08:54;;;;;;;7.28;2.38;;;;;;;;;;5018338;28;20063;-64
2024/02/13 08:11:21;;;;;;;8.93;3.03;;;;;;;;;;5014040;28;20058;-64
2024/02/13 08:13:53;;;;;;;11.05;2.60;;;;;;;;;;4993150;28;20089;-65
2024/02/13 08:16:25;;;;;;;8.90;2.80;;;;;;;;;;4997300;28;20054;-64
2024/02/13 08:18:52;;;;;;;7.10;2.17;;;;;;;;;;4998915;28;20049;-64
2024/02/13 08:21:22;;;;;;;12.57;2.45;;;;;;;;;;4981660;28;20054;-64
2024/02/13 08:23:50;;;;;;;5.03;2.58;;;;;;;;;;5011019;28;20106;-63
2024/02/13 08:26:17;;;;;;;;;;;;;;;;;;5003200;28;20065;-65
2024/02/13 08:28:44;;;;;;;7.38;2.42;;;;;;;;;;5016382;28;19952;-64
2024/02/13 08:31:11;;;;;;;5.88;2.28;;;;;;;;;;4999279;28;20207;-65
2024/02/13 08:33:43;;;;;;;7.95;2.33;;;;;;;;;;5019905;28;20053;-64
2024/02/13 08:36:17;;;;;;;10.60;3.30;;;;;;;;;;5016214;28;20122;-63
2024/02/13 08:38:47;;;;;;;5.68;2.42;;;;;;;;;;5019863;28;20055;-63
2024/02/13 08:41:15;;;;;;;7.63;2.97;;;;;;;;;;5016400;28;20057;-63
2024/02/13 08:43:42;;;;;;;5.35;2.15;;;;;;;;;;5022910;28;20053;-64
2024/02/13 08:46:10;;;;;;;14.52;2.83;;;;;;;;;;5021464;28;20218;-64
2024/02/13 08:48:37;;;;;;;8.13;2.65;;;;;;;;;;5005362;28;20136;-65
2024/02/13 08:51:06;;;;;;;6.05;2.67;;;;;;;;;;5016537;28;20060;-64
2024/02/13 08:53:33;;;;;;;8.90;3.15;;;;;;;;;;5019266;28;20057;-63
2024/02/13 08:56:03;;;;;;;8.00;2.80;;;;;;;;;;5034940;28;20063;-64
2024/02/13 08:58:30;;;;;;;7.90;2.83;;;;;;;;;;5019776;28;20050;-64
2024/02/13 09:00:57;;;;;;;6.13;2.13;;;;;;;;;;5016957;28;20079;-65
2024/02/13 09:03:24;;;;;;;6.97;2.20;;;;;;;;;;5017700;28;20052;-64
2024/02/13 09:05:56;;;;;;;6.47;2.60;;;;;;;;;;5021593;28;20049;-65
2024/02/13 09:08:25;;;;;;;9.68;2.75;;;;;;;;;;5018345;28;20052;-65
2024/02/13 09:10:52;;;;;;;11.35;2.92;;;;;;;;;;5026211;28;20459;-65
2024/02/13 09:13:19;;;;;;;5.72;1.90;;;;;;;;;;5017299;28;20041;-65
2024/02/13 09:15:46;;;;;;;5.57;2.13;;;;;;;;;;5012104;28;20045;-64
2024/02/13 09:18:13;;;;;;;8.43;2.50;;;;;;;;;;5016427;28;20394;-64
2024/02/13 09:20:41;;;;;;;4.85;1.65;;;;;;;;;;5013172;28;20064;-65
2024/02/13 09:23:08;;;;;;;7.05;2.63;;;;;;;;;;5015472;28;20046;-65
2024/02/13 09:25:48;;;;;;;5.05;1.85;;;;;;;;;;5007466;28;20476;-64
2024/02/13 09:28:16;;;;;;;6.80;2.05;;;;;;;;;;5036655;28;20095;-66
2024/02/13 09:30:43;;;;;;;8.82;2.00;;;;;;;;;;5005149;28;20052;-63
2024/02/13 09:33:11;;;;;;;8.20;2.08;;;;;;;;;;5031260;28;20056;-64
2024/02/13 09:35:44;;;;;;;3.30;1.73;;;;;;;;;;5037408;28;20062;-66
2024/02/13 09:38:19;;;;;;;5.20;1.98;;;;;;;;;;5041718;28;20331;-65
2024/02/13 09:40:48;;;;;;;6.82;2.00;;;;;;;;;;5029612;28;20208;-64
2024/02/13 09:43:18;;;;;;;7.07;2.28;;;;;;;;;;5050764;28;20055;-64
2024/02/13 09:45:46;;;;;;;6.85;2.20;;;;;;;;;;5034455;28;20045;-66
2024/02/13 09:48:20;;;;;;;4.43;1.90;;;;;;;;;;5037671;28;20049;-63
2024/02/13 09:50:51;;;;;;;5.40;2.03;;;;;;;;;;5025739;28;20145;-64
2024/02/13 09:53:24;;;;;;;7.25;2.17;;;;;;;;;;5032141;28;20060;-63
2024/02/13 09:55:54;;;;;;;3.38;1.77;;;;;;;;;;5036459;28;20152;-63
2024/02/13 09:58:24;;;;;;;7.95;2.22;;;;;;;;;;5037620;28;20072;-65
2024/02/13 10:00:52;;;;;;;4.85;1.80;;;;;;;;;;5035840;28;20069;-65
2024/02/13 10:03:20;;;;;;;7.57;2.35;;;;;;;;;;5027726;28;20044;-65
2024/02/13 10:05:50;;;;;;;7.90;3.13;;;;;;;;;;5041737;28;20053;-64
2024/02/13 10:08:20;;;;;;;5.45;1.95;;;;;;;;;;5037615;28;20041;-64
2024/02/13 10:10:49;;;;;;;6.82;2.20;;;;;;;;;;5020833;28;20048;-64
2024/02/13 10:13:18;;;;;;;4.88;2.13;;;;;;;;;;5036471;28;20057;-66
2024/02/13 10:15:52;;;;;;;4.78;1.90;;;;;;;;;;5036605;28;20049;-64
2024/02/13 10:18:20;;;;;;;6.72;1.85;;;;;;;;;;5045258;28;20072;-63
2024/02/13 10:20:50;;;;;;;8.98;2.30;;;;;;;;;;5004358;28;20072;-64
2024/02/13 10:23:19;;;;;;;7.55;2.83;;;;;;;;;;5034936;28;20135;-64
2024/02/13 10:25:53;;;;;;;6.60;2.42;;;;;;;;;;5034090;28;20056;-63
2024/02/13 10:28:25;;;;;;;6.65;2.20;;;;;;;;;;5037442;28;20191;-64
2024/02/13 10:30:56;;;;;;;7.00;2.17;;;;;;;;;;5035009;28;20064;-65
2024/02/13 10:33:23;;;;;;;7.10;1.85;;;;;;;;;;5034409;28;20061;-65
2024/02/13 10:35:55;;;;;;;6.47;2.55;;;;;;;;;;5034113;28;20063;-65
2024/02/13 10:38:28;;;;;;;5.80;1.90;;;;;;;;;;5037827;28;20152;-65
2024/02/13 10:41:03;;;;;;;6.55;2.08;;;;;;;;;;5022844;28;20098;-65
2024/02/13 10:43:34;;;;;;;9.50;2.42;;;;;;;;;;5037023;28;20104;-65
2024/02/13 10:46:04;;;;;;;;;;;;;;;;;;5033943;28;20139;-67
2024/02/13 10:48:40;;;;;;;9.77;2.40;;;;;;;;;;5039229;28;19929;-65
2024/02/13 10:51:15;;;;;;;5.43;2.20;;;;;;;;;;5014913;28;20060;-66
2024/02/13 10:53:55;;;;;;;4.97;1.77;;;;;;;;;;5049099;28;20054;-64
2024/02/13 10:56:24;;;;;;;5.93;2.30;;;;;;;;;;5049395;28;20052;-65
2024/02/13 10:58:54;;;;;;;7.57;2.10;;;;;;;;;;5034246;28;20061;-65
2024/02/13 11:01:22;;;;;;;14.82;2.03;;;;;;;;;;5010460;28;20148;-65
2024/02/13 11:04:01;;;;;;;5.05;1.73;;;;;;;;;;5031159;28;20044;-64
2024/02/13 11:06:32;;;;;;;3.42;1.70;;;;;;;;;;5037331;28;20095;-65
2024/02/13 11:08:59;;;;;;;6.70;1.83;;;;;;;;;;5033153;28;20056;-65
2024/02/13 11:11:26;;;;;;;5.15;2.00;;;;;;;;;;5002159;28;20064;-65
2024/02/13 11:14:04;;;;;;;5.50;1.90;;;;;;;;;;5020822;28;20057;-65
2024/02/13 11:16:35;;;;;;;8.07;1.63;;;;;;;;;;5034869;28;20049;-64
2024/02/13 11:19:11;;;;;;;5.75;2.10;;;;;;;;;;5042176;28;20056;-65
2024/02/13 11:21:44;;;;;;;5.53;2.20;;;;;;;;;;5015516;28;20471;-67
2024/02/13 11:24:20;;;;;;;6.75;2.03;;;;;;;;;;5040186;28;20056;-66
2024/02/13 11:26:50;;;;;;;8.75;2.10;;;;;;;;;;5039954;28;20064;-66
2024/02/13 11:29:21;;;;;;;4.00;1.73;;;;;;;;;;5041506;28;20068;-66
2024/02/13 11:31:56;;;;;;;8.05;2.35;;;;;;;;;;5029798;28;20053;-71
2024/02/13 11:34:38;;;;;;;14.45;2.88;;;;;;;;;;5031405;28;20054;-66
2024/02/13 11:37:16;;;;;;;7.47;2.70;;;;;;;;;;5044772;28;20067;-66
2024/02/13 11:39:46;;;;;;;7.75;2.53;;;;;;;;;;5040981;28;20053;-65
2024/02/13 11:42:18;;;;;;;5.63;1.90;;;;;;;;;;5024510;28;20053;-64
2024/02/13 11:44:48;;;;;;;12.70;1.98;;;;;;;;;;5038438;28;20154;-66
2024/02/13 11:47:19;;;;;;;4.95;1.63;;;;;;;;;;5053240;28;20063;-65
2024/02/13 11:49:49;;;;;;;7.03;2.28;;;;;;;;;;5052800;28;20046;-65
2024/02/13 11:52:16;;;;;;;11.70;3.20;;;;;;;;;;5040979;28;20045;-65
2024/02/13 11:54:47;;;;;;;6.18;2.08;;;;;;;;;;5039381;28;20113;-65
2024/02/13 11:57:16;;;;;;;10.00;1.92;;;;;;;;;;5036869;28;20052;-65
2024/02/13 11:59:43;;;;;;;5.53;1.92;;;;;;;;;;5038348;28;20111;-66
2024/02/13 12:02:23;;;;;;;4.60;1.95;;;;;;;;;;5022482;28;20041;-65
2024/02/13 12:04:49;;;;;;;4.30;1.63;;;;;;;;;;5037805;28;20048;-65
2024/02/13 12:07:21;;;;;;;6.88;1.95;;;;;;;;;;5034860;28;20110;-66
2024/02/13 12:09:52;;;;;;;3.92;1.77;;;;;;;;;;5033864;28;20059;-66
2024/02/13 12:12:24;;;;;;;3.97;1.60;;;;;;;;;;5019453;28;20123;-63
2024/02/13 12:14:53;;;;;;;9.68;2.08;;;;;;;;;;5041563;28;20049;-64
2024/02/13 12:17:20;;;;;;;5.57;2.00;;;;;;;;;;5042934;28;20096;-64
2024/02/13 12:19:55;;;;;;;9.05;2.17;;;;;;;;;;5042796;28;20075;-65
2024/02/13 12:22:26;;;;;;;5.53;1.73;;;;;;;;;;5044679;28;20052;-63
2024/02/13 12:24:54;;;;;;;8.38;1.88;;;;;;;;;;5034832;28;20136;-64
2024/02/13 12:27:33;;;;;;;5.97;1.90;;;;;;;;;;5038658;28;20079;-65
2024/02/13 12:30:03;;;;;;;4.07;1.97;;;;;;;;;;5061245;28;20053;-65
2024/02/13 12:32:34;;;;;;;7.68;2.00;;;;;;;;;;5005721;28;20132;-65
2024/02/13 12:35:25;;;;;;;6.88;2.13;;;;;;;;;;5033333;28;20048;-65
2024/02/13 12:37:53;;;;;;;7.63;2.50;;;;;;;;;;5042068;28;20067;-65
2024/02/13 12:40:26;;;;;;;6.47;1.58;;;;;;;;;;5039679;28;20060;-65
2024/02/13 12:42:54;;;;;;;4.85;1.80;;;;;;;;;;5034137;28;20040;-66
2024/02/13 12:45:21;;;;;;;2.53;1.40;;;;;;;;;;5038446;28;20048;-64
2024/02/13 12:47:52;;;;;;;10.18;2.25;;;;;;;;;;5035145;28;20080;-66
2024/02/13 12:50:23;;;;;;;9.05;1.73;;;;;;;;;;5029585;28;20173;-65
2024/02/13 12:52:52;;;;;;;5.63;1.48;;;;;;;;;;5035265;28;20143;-63
2024/02/13 12:55:21;;;;;;;4.32;1.83;;;;;;;;;;5039133;28;20114;-66
2024/02/13 12:57:54;;;;;;;3.30;1.30;;;;;;;;;;5033208;28;20049;-65
2024/02/13 13:00:22;;;;;;;8.93;1.70;;;;;;;;;;5047658;28;20048;-64
2024/02/13 13:02:49;;;;;;;3.67;1.63;;;;;;;;;;5029001;28;20052;-65
2024/02/13 13:05:18;;;;;;;5.82;1.90;;;;;;;;;;5038656;28;20135;-64
2024/02/13 13:08:05;;;;;;;7.78;1.85;;;;;;;;;;5037470;28;20045;-65
2024/02/13 13:10:32;;;;;;;6.53;1.63;;;;;;;;;;5031836;28;20052;-64
2024/02/13 13:12:59;;;;;;;6.80;1.58;;;;;;;;;;5035163;28;20048;-65
2024/02/13 13:15:30;;;;;;;7.13;1.90;;;;;;;;;;5044874;28;20160;-64
2024/02/13 13:17:57;;;;;;;6.88;1.52;;;;;;;;;;5044702;28;20238;-65
2024/02/13 13:20:27;;;;;;;9.90;1.90;;;;;;;;;;5047226;28;20067;-65
2024/02/13 13:22:54;;;;;;;6.47;1.45;;;;;;;;;;5034815;28;20048;-64
2024/02/13 13:25:31;;;;;;;4.68;1.83;;;;;;;;;;5045603;28;20119;-65
2024/02/13 13:28:05;;;;;;;5.47;1.73;;;;;;;;;;5032150;28;20324;-65
2024/02/13 13:30:32;;;;;;;7.57;1.80;;;;;;;;;;5038266;28;20187;-64
2024/02/13 13:32:59;;;;;;;5.03;1.40;;;;;;;;;;5022628;28;20226;-65
2024/02/13 13:35:26;;;;;;;4.95;1.90;;;;;;;;;;5042626;28;20053;-65
2024/02/13 13:37:53;;;;;;;7.40;2.40;;;;;;;;;;5031489;28;20053;-65
2024/02/13 13:40:22;;;;;;;5.43;2.08;;;;;;;;;;5036474;28;20121;-65
2024/02/13 13:42:50;;;;;;;6.03;1.52;;;;;;;;;;5036035;28;20049;-63
2024/02/13 13:45:17;;;;;;;;;;;;;;;;;;5046478;28;20053;-65
2024/02/13 13:47:45;;;;;;;4.97;1.40;;;;;;;;;;5044123;28;19982;-68
2024/02/13 13:50:16;;;;;;;6.28;1.75;;;;;;;;;;5035906;28;20110;-63
2024/02/13 13:52:43;;;;;;;5.53;1.50;;;;;;;;;;5032682;28;20084;-67
2024/02/13 13:55:11;;;;;;;4.03;1.40;;;;;;;;;;5039768;28;20049;-64
2024/02/13 13:57:38;;;;;;;4.22;1.40;;;;;;;;;;5038535;28;20061;-64
2024/02/13 14:00:13;;;;;;;11.30;1.50;;;;;;;;;;5044313;28;20121;-64
2024/02/13 14:02:43;;;;;;;5.20;1.40;;;;;;;;;;5044333;28;20129;-66
2024/02/13 14:05:13;;;;;;;7.72;1.58;;;;;;;;;;5036915;28;20056;-65
2024/02/13 14:07:43;;;;;;;4.90;1.63;;;;;;;;;;5036163;28;20057;-65
2024/02/13 14:10:12;;;;;;;9.93;1.90;;;;;;;;;;5035234;28;20057;-65
2024/02/13 14:12:42;;;;;;;5.50;1.42;;;;;;;;;;5025755;28;20049;-65
2024/02/13 14:15:11;;;;;;;7.97;1.75;;;;;;;;;;5035216;28;20063;-65
2024/02/13 14:17:52;;;;;;;;;;;;;;;;;;5034970;28;20049;-64
2024/02/13 14:20:20;;;;;;;5.22;1.02;;;;;;;;;;5037344;28;19959;-64
2024/02/13 14:22:47;;;;;;;5.70;1.60;;;;;;;;;;5022451;28;20064;-65
2024/02/13 14:25:17;;;;;;;5.18;1.30;;;;;;;;;;5038912;28;20056;-64
2024/02/13 14:27:46;;;;;;;4.55;1.50;;;;;;;;;;5036185;28;20132;-66
2024/02/13 14:30:16;;;;;;;5.22;1.15;;;;;;;;;;5034801;28;20056;-69
2024/02/13 14:32:43;;;;;;;3.30;1.20;;;;;;;;;;5024401;28;20084;-65
2024/02/13 14:35:10;;;;;;;4.72;1.20;;;;;;;;;;5043487;28;20076;-65
2024/02/13 14:37:40;;;;;;;3.85;1.10;;;;;;;;;;5022234;28;20049;-65
2024/02/13 14:40:09;;;;;;;3.58;0.90;;;;;;;;;;5042578;28;20131;-65
2024/02/13 14:42:35;;;;;;;;;;;;;;;;;;5046957;28;20052;-64
2024/02/13 14:45:05;;;;;;;2.35;1.10;;;;;;;;;;5049134;28;19932;-65
2024/02/13 14:47:34;;;;;;;4.40;1.08;;;;;;;;;;5053663;28;20116;-65
2024/02/13 14:50:03;;;;;;;9.02;1.17;;;;;;;;;;5033443;28;20081;-65
2024/02/13 14:52:31;;;;;;;5.72;1.20;;;;;;;;;;5037786;28;20049;-65
2024/02/13 14:54:58;;;;;;;2.47;1.20;;;;;;;;;;5038883;28;20110;-65
2024/02/13 14:57:26;;;;;;;3.80;1.00;;;;;;;;;;5030701;28;20091;-65
2024/02/13 14:59:53;;;;;;;2.47;0.90;;;;;;;;;;5033206;28;20099;-66
2024/02/13 15:02:20;;;;;;;3.50;1.10;;;;;;;;;;5035854;28;20049;-67
2024/02/13 15:04:49;;;;;;;4.70;1.38;;;;;;;;;;5046303;28;20048;-66
2024/02/13 15:07:18;;;;;;;;;;;;;;;;;;5042228;28;20133;-66
2024/02/13 15:09:51;;;;;;;2.45;0.98;;;;;;;;;;5049767;28;19951;-67
2024/02/13 15:12:20;;;;;;;4.40;1.90;;;;;;;;;;5032248;28;20145;-67
2024/02/13 15:14:49;;;;;;;8.20;3.47;;;;;;;;;;5043209;28;20049;-66
2024/02/13 15:17:19;;;;;;;9.38;1.70;;;;;;;;;;5036924;28;20052;-67
2024/02/13 15:19:48;;;;;;;7.88;1.58;;;;;;;;;;5029267;28;20057;-67
2024/02/13 15:22:18;;;;;;;3.50;0.98;;;;;;;;;;5038029;28;20056;-66
2024/02/13 15:24:45;;;;;;;11.27;2.60;;;;;;;;;;5038295;28;20053;-66
2024/02/13 15:27:12;;;;;;;7.40;2.10;;;;;;;;;;5046298;28;20083;-66
2024/02/13 15:29:49;;;;;;;4.40;1.10;;;;;;;;;;5057369;28;20045;-67
2024/02/13 15:32:17;;;;;;;7.55;1.23;;;;;;;;;;5025977;28;20049;-67
2024/02/13 15:34:46;;;;;;;4.43;1.23;;;;;;;;;;5048118;28;20049;-66
2024/02/13 15:46:57;;;;;;;5.32;1.27;;;;;;;;;;5037475;28;20052;-67
2024/02/13 15:48:25;;;;;;;3.42;1.20;;;;;;;;;;5041114;28;20107;-67
2024/02/13 15:50:52;;;;;;;3.20;0.98;;;;;;;;;;5036655;28;20056;-66
2024/02/13 15:53:22;;;;;;;3.50;1.20;;;;;;;;;;5041784;28;20049;-65
2024/02/13 15:55:52;;;;;;;3.13;0.90;;;;;;;;;;5037900;28;20052;-66
2024/02/13 15:58:19;;;;;;;3.42;0.98;;;;;;;;;;5048425;28;20062;-66
2024/02/13 16:00:46;;;;;;;4.00;1.50;;;;;;;;;;5034020;28;20063;-66
2024/02/13 16:03:13;;;;;;;11.63;3.10;;;;;;;;;;5041158;28;20072;-65
2024/02/13 16:05:42;;;;;;;8.10;2.17;;;;;;;;;;5046841;28;20527;-68
2024/02/13 16:08:10;;;;;;;6.75;1.38;;;;;;;;;;5036186;28;20053;-65
2024/02/13 16:10:41;;;;;;;4.07;0.90;;;;;;;;;;5036697;28;20094;-65
2024/02/13 16:13:10;;;;;;;7.30;1.17;;;;;;;;;;4971255;28;20080;-67
2024/02/13 16:15:39;;;;;;;2.88;1.20;;;;;;;;;;5027547;28;20054;-65
2024/02/13 16:18:07;;;;;;;4.95;1.20;;;;;;;;;;5034718;28;20053;-65
2024/02/13 16:20:34;;;;;;;3.28;1.30;;;;;;;;;;5029332;28;20077;-67
2024/02/13 16:23:05;;;;;;;8.93;1.40;;;;;;;;;;5017143;28;20053;-67
2024/02/13 16:26:10;;;;;;;6.20;1.10;;;;;;;;;;5042044;28;20056;-66
2024/02/13 16:28:37;;;;;;;3.45;0.88;;;;;;;;;;5025189;28;20056;-69
2024/02/13 16:31:06;;;;;;;2.72;1.50;;;;;;;;;;5040138;28;20056;-65
2024/02/13 16:33:35;;;;;;;7.50;1.50;;;;;;;;;;5043815;28;20076;-66
2024/02/13 16:36:02;;;;;;;8.82;2.13;;;;;;;;;;5043482;28;20152;-67
2024/02/13 16:38:32;;;;;;;4.60;1.73;;;;;;;;;;5031512;28;20056;-65
2024/02/13 16:41:04;;;;;;;5.72;2.03;;;;;;;;;;5028634;28;20107;-66
2024/02/13 16:43:33;;;;;;;4.32;1.90;;;;;;;;;;5031992;28;20142;-70
2024/02/13 16:46:02;;;;;;;11.10;2.55;;;;;;;;;;5029014;28;20103;-68
2024/02/13 16:48:30;;;;;;;6.22;2.35;;;;;;;;;;5033652;28;20057;-65
2024/02/13 16:50:57;;;;;;;5.20;1.80;;;;;;;;;;5028124;28;20087;-68
2024/02/13 16:53:26;;;;;;;3.75;1.15;;;;;;;;;;5033741;28;20058;-67
2024/02/13 16:55:54;;;;;;;6.10;1.10;;;;;;;;;;5023423;28;20136;-66
2024/02/13 16:58:24;;;;;;;7.10;1.50;;;;;;;;;;5047389;28;20054;-66
2024/02/13 17:00:51;;;;;;;6.13;1.23;;;;;;;;;;5034934;28;20060;-65
2024/02/13 17:03:19;;;;;;;4.75;1.30;;;;;;;;;;5032248;28;20053;-65
2024/02/13 17:05:46;;;;;;;3.28;1.23;;;;;;;;;;5027250;28;20096;-66
2024/02/13 17:08:13;;;;;;;6.05;1.52;;;;;;;;;;5031968;28;20053;-67
2024/02/13 17:10:43;;;;;;;4.43;1.33;;;;;;;;;;5032546;28;20096;-66
2024/02/13 17:13:10;;;;;;;4.43;1.70;;;;;;;;;;5028742;28;20056;-65
2024/02/13 17:15:42;;;;;;;2.30;0.98;;;;;;;;;;5030225;28;20049;-67
2024/02/13 17:18:09;;;;;;;7.28;1.30;;;;;;;;;;5035315;28;20048;-68
2024/02/13 17:20:36;;;;;;;3.22;1.17;;;;;;;;;;5036490;28;20056;-68
2024/02/13 17:23:04;;;;;;;8.90;1.40;;;;;;;;;;5013636;28;20052;-67
2024/02/13 17:25:35;;;;;;;5.63;1.50;;;;;;;;;;5027969;28;20155;-68
2024/02/13 17:28:02;;;;;;;3.50;1.27;;;;;;;;;;5017286;28;20060;-68
2024/02/13 17:30:30;;;;;;;3.85;1.27;;;;;;;;;;5032427;28;20053;-65
2024/02/13 17:32:59;;;;;;;3.50;1.30;;;;;;;;;;5015644;28;20052;-65
2024/02/13 17:35:26;;;;;;;;;;;;;;;;;;5029008;28;20131;-66
2024/02/13 17:37:53;;;;;;;4.00;1.38;;;;;;;;;;5024445;28;19924;-69
2024/02/13 17:40:20;;;;;;;8.80;1.88;;;;;;;;;;5031179;28;20057;-64
2024/02/13 17:42:47;;;;;;;5.82;1.88;;;;;;;;;;5015356;28;20157;-67
2024/02/13 17:45:15;;;;;;;2.92;1.60;;;;;;;;;;5032805;28;20055;-68
2024/02/13 17:47:42;;;;;;;3.40;1.57;;;;;;;;;;5030212;28;20152;-64
2024/02/13 17:50:11;;;;;;;6.18;1.65;;;;;;;;;;5026180;28;20803;-65
2024/02/13 17:52:40;;;;;;;4.82;1.50;;;;;;;;;;5025788;28;20142;-66
2024/02/13 17:55:16;;;;;;;5.22;1.30;;;;;;;;;;5031315;28;20144;-66
2024/02/13 17:57:43;;;;;;;3.80;1.30;;;;;;;;;;5039067;28;20126;-67
2024/02/13 18:00:13;;;;;;;3.38;1.40;;;;;;;;;;5027929;28;20064;-65
2024/02/13 18:02:40;;;;;;;3.05;1.25;;;;;;;;;;5044114;28;20137;-64
2024/02/13 18:05:11;;;;;;;3.83;1.40;;;;;;;;;;5040243;28;20045;-64
2024/02/13 18:07:42;;;;;;;10.75;1.40;;;;;;;;;;5031906;28;20052;-65
2024/02/13 18:10:10;;;;;;;6.03;1.45;;;;;;;;;;5038666;28;20152;-64
2024/02/13 18:12:38;;;;;;;4.95;1.33;;;;;;;;;;5024405;28;20080;-67
2024/02/13 18:15:07;;;;;;;8.10;1.40;;;;;;;;;;5030087;28;20041;-67
2024/02/13 18:17:35;;;;;;;4.95;1.50;;;;;;;;;;5031227;28;20310;-66
2024/02/13 18:20:02;;;;;;;4.38;1.40;;;;;;;;;;5025462;28;20061;-65
2024/02/13 18:22:30;;;;;;;4.97;1.48;;;;;;;;;;5019159;28;20179;-66
2024/02/13 18:24:57;;;;;;;4.32;1.27;;;;;;;;;;5028314;28;20048;-65
2024/02/13 18:27:24;;;;;;;7.20;1.67;;;;;;;;;;5035909;28;20096;-65
2024/02/13 18:29:53;;;;;;;4.45;1.73;;;;;;;;;;5024180;28;20053;-69
2024/02/13 18:32:21;;;;;;;7.07;1.88;;;;;;;;;;5024399;28;20045;-66
2024/02/13 18:34:50;;;;;;;5.72;1.95;;;;;;;;;;5024943;28;20124;-65
2024/02/13 18:37:19;;;;;;;7.93;2.10;;;;;;;;;;5045906;28;20185;-65
2024/02/13 18:39:47;;;;;;;5.22;2.15;;;;;;;;;;5032423;28;20056;-66
2024/02/13 18:42:24;;;;;;;7.40;2.20;;;;;;;;;;5035855;28;20044;-66
2024/02/13 18:44:51;;;;;;;5.00;1.80;;;;;;;;;;5027278;28;20148;-65
2024/02/13 18:47:18;;;;;;;6.80;1.92;;;;;;;;;;5032716;28;20089;-65
2024/02/13 18:49:45;;;;;;;4.53;1.77;;;;;;;;;;5029473;28;20132;-65
2024/02/13 18:52:13;;;;;;;4.63;1.80;;;;;;;;;;5009879;28;20103;-66
2024/02/13 18:54:40;;;;;;;;;;;;;;;;;;5030446;28;20059;-67
2024/02/13 18:57:08;;;;;;;4.93;2.25;;;;;;;;;;5031220;28;19932;-67
2024/02/13 18:59:36;;;;;;;11.60;4.10;;;;;;;;;;5041546;28;20057;-66
2024/02/13 19:02:03;;;;;;;7.25;2.70;;;;;;;;;;5027062;28;20056;-65
2024/02/13 19:04:30;;;;;;;8.88;2.60;;;;;;;;;;5035024;28;20049;-65
2024/02/13 19:06:58;;;;;;;8.57;3.28;;;;;;;;;;5033336;28;20056;-66
2024/02/13 19:09:28;;;;;;;8.30;2.50;;;;;;;;;;5023393;28;20053;-67
2024/02/13 19:11:55;;;;;;;3.72;1.55;;;;;;;;;;5019152;28;20053;-66
2024/02/13 19:14:24;;;;;;;3.78;1.60;;;;;;;;;;5031088;28;20060;-66
2024/02/13 19:16:53;;;;;;;5.22;1.90;;;;;;;;;;5033593;28;20052;-65
2024/02/13 19:19:20;;;;;;;4.85;2.05;;;;;;;;;;5035933;28;20048;-67
2024/02/13 19:21:47;;;;;;;9.63;2.15;;;;;;;;;;5014276;28;20060;-68
2024/02/13 19:24:14;;;;;;;4.63;1.90;;;;;;;;;;5035642;28;20140;-66
2024/02/13 19:26:40;;;;;;;7.03;2.08;;;;;;;;;;5035600;28;20179;-65
2024/02/13 19:29:08;;;;;;;5.80;2.00;;;;;;;;;;5042428;28;20056;-66
2024/02/13 19:31:36;;;;;;;5.10;1.88;;;;;;;;;;5015749;28;20055;-66
2024/02/13 19:34:04;;;;;;;7.25;1.80;;;;;;;;;;5017225;28;20067;-65
2024/02/13 19:36:31;;;;;;;9.68;3.53;;;;;;;;;;5033519;28;20125;-67
2024/02/13 19:38:58;;;;;;;7.55;2.47;;;;;;;;;;5032996;28;20064;-65
2024/02/13 19:41:25;;;;;;;9.18;2.70;;;;;;;;;;5033927;28;20064;-66
2024/02/13 19:43:55;;;;;;;5.88;2.22;;;;;;;;;;5036873;28;20143;-66
2024/02/13 19:46:24;;;;;;;8.73;2.20;;;;;;;;;;5035850;28;20127;-65
2024/02/13 19:48:53;;;;;;;4.47;2.10;;;;;;;;;;5044322;28;20053;-66
2024/02/13 19:51:20;;;;;;;;;;;;;;;;;;5030319;28;21301;-66
2024/02/13 19:53:51;;;;;;;6.90;1.90;;;;;;;;;;5043752;28;20070;-65
2024/02/13 19:56:19;;;;;;;9.82;2.25;;;;;;;;;;5010562;22;20050;-76
2024/02/13 19:58:45;;;;;;;6.32;1.85;;;;;;;;;;5017561;28;20087;-76
2024/02/13 20:07:07;;;;;;;5.72;2.10;;;;;;;;;;4896583;29;20122;-73
2024/02/13 20:09:39;;;;;;;3.75;1.83;;;;;;;;;;4934746;28;20055;-73
2024/02/13 20:12:07;;;;;;;8.02;2.15;;;;;;;;;;4965099;28;20066;-73
2024/02/13 20:14:34;;;;;;;5.18;1.95;;;;;;;;;;4995994;28;20451;-72
2024/02/13 20:17:03;;;;;;;7.90;2.42;;;;;;;;;;5031164;28;20057;-71
2024/02/13 20:19:31;;;;;;;3.83;2.00;;;;;;;;;;5030924;28;20130;-75
2024/02/13 20:21:58;;;;;;;4.60;2.33;;;;;;;;;;4961478;28;20085;-75
2024/02/13 20:24:29;;;;;;;7.07;2.25;;;;;;;;;;4970437;28;20057;-77
2024/02/13 20:26:57;;;;;;;8.95;2.30;;;;;;;;;;5013272;28;20049;-78
2024/02/13 20:29:53;;;;;;;;;;;;;;;;;;;;;
2024/02/13 20:41:08;;;;;;;5.82;2.45;;;;;;;;;;4865869;29;20048;-74
2024/02/13 20:43:36;;;;;;;8.20;2.40;;;;;;;;;;4856819;29;20071;-76
2024/02/13 20:46:04;;;;;;;6.38;2.03;;;;;;;;;;4966161;28;20384;-76
2024/02/13 20:48:31;;;;;;;6.22;2.00;;;;;;;;;;5030218;28;20053;-73
2024/02/13 20:51:00;;;;;;;9.07;2.67;;;;;;;;;;5027691;28;20056;-73
2024/02/13 20:53:27;;;;;;;10.45;2.58;;;;;;;;;;5019854;28;20057;-76
2024/02/13 20:56:01;;;;;;;7.03;2.33;;;;;;;;;;4997481;28;20160;-72
2024/02/13 20:58:33;;;;;;;5.13;1.98;;;;;;;;;;4998533;28;21009;-74
2024/02/13 21:01:00;;;;;;;4.95;1.85;;;;;;;;;;5016830;28;20511;-77
2024/02/13 21:03:27;;;;;;;7.13;2.40;;;;;;;;;;4968379;28;20152;-73
2024/02/13 21:05:54;;;;;;;5.43;2.00;;;;;;;;;;5031438;28;20046;-77
2024/02/13 21:08:22;;;;;;;4.53;1.98;;;;;;;;;;5029692;28;20049;-75
2024/02/13 21:10:50;;;;;;;4.70;2.20;;;;;;;;;;5031664;28;20041;-72
2024/02/13 21:13:17;;;;;;;6.20;2.30;;;;;;;;;;4963927;28;20288;-77
2024/02/13 21:15:53;;;;;;;6.05;2.10;;;;;;;;;;4947724;28;20068;-73
2024/02/13 21:18:21;;;;;;;6.55;2.58;;;;;;;;;;4957231;28;20332;-76
2024/02/13 21:21:07;;;;;;;7.93;3.25;;;;;;;;;;5022651;28;20049;-76
2024/02/13 21:23:51;;;;;;;11.70;2.80;;;;;;;;;;4960228;28;20057;-77
2024/02/13 21:26:19;;;;;;;5.55;2.35;;;;;;;;;;5023050;23;20122;-67
2024/02/13 21:28:46;;;;;;;4.15;2.05;;;;;;;;;;4955080;28;20046;-67
2024/02/13 21:31:14;;;;;;;3.83;1.67;;;;;;;;;;4954330;28;20054;-67
2024/02/13 21:33:47;;;;;;;3.20;1.55;;;;;;;;;;4917503;28;20221;-67
2024/02/13 21:36:25;;;;;;;;;;;;;;;;;;;;;
2024/02/13 21:38:55;;;;;;;6.97;1.67;;;;;;;;;;4970092;28;20082;-67
2024/02/13 21:41:25;;;;;;;7.43;3.53;;;;;;;;;;4966298;28;20091;-67
2024/02/13 21:43:52;;;;;;;7.22;2.50;;;;;;;;;;4926343;28;20057;-67
2024/02/13 21:46:21;;;;;;;11.68;3.97;;;;;;;;;;4975150;28;20061;-67
2024/02/13 21:48:47;;;;;;;;;;;;;;;;;;4957777;28;20093;-67
2024/02/13 21:51:16;;;;;;;4.88;2.08;;;;;;;;;;4975984;28;19973;-67
2024/02/13 21:53:47;;;;;;;6.88;2.15;;;;;;;;;;4955651;28;20061;-67